Terminal Aerodrome Forecast
Issued by NWS

Home | Current Version | Previous Version | Text Only | Print | Product List | Glossary On
Versions: 1 2 3 4 5 6 7 8 9 10 11 12 13 14 15 16
000
FTUS41 KPBZ 201100
TAFLBE
TAF
KLBE 201137Z 2012/2112 31006KT 6SM -SHRA BKN040
      TEMPO 2012/2014 2SM SHRA BKN015 OVC030
     FM201500 20006KT P6SM VCSH SCT030 BKN080
     FM201800 22010KT P6SM VCTS BKN040CB
     FM210200 23004KT P6SM SCT040
     FM210600 VRB03KT 4SM BR SCT040=

USA.gov is the U.S. government's official web portal to all federal, state and local government web resources and services.